createdAt,value
2022-09-26T00:01:59.138Z,72.67
2022-09-26T00:04:32.744Z,72.86
2022-09-26T00:07:01.518Z,73.22
2022-09-26T00:09:31.252Z,72.46
2022-09-26T00:12:01.902Z,72.98
2022-09-26T00:14:31.961Z,73.02
2022-09-26T00:17:01.766Z,73.02
2022-09-26T00:19:31.528Z,72.72
2022-09-26T00:22:01.304Z,72.15
2022-09-26T00:24:31.392Z,72.69
2022-09-26T00:27:01.114Z,72.89
2022-09-26T00:29:30.874Z,73.60
2022-09-26T00:32:00.977Z,73.76
2022-09-26T00:34:30.707Z,72.93
2022-09-26T00:37:01.188Z,72.94
2022-09-26T00:39:30.920Z,73.32
2022-09-26T00:42:02.376Z,73.03
2022-09-26T00:44:46.823Z,73.37
2022-09-26T00:47:37.189Z,73.54
2022-09-26T00:50:12.806Z,72.92
2022-09-26T00:52:45.585Z,72.98
2022-09-26T00:55:18.624Z,73.31
2022-09-26T00:57:53.159Z,73.84
2022-09-26T01:00:23.921Z,73.39
2022-09-26T01:02:55.272Z,73.39
2022-09-26T01:05:25.561Z,72.81
2022-09-26T01:07:57.118Z,72.90
2022-09-26T01:10:30.066Z,72.75
2022-09-26T01:13:02.111Z,72.51
2022-09-26T01:15:32.036Z,72.51
2022-09-26T01:18:02.204Z,73.17
2022-09-26T01:20:49.520Z,73.33
2022-09-26T01:23:43.037Z,73.14
2022-09-26T01:26:43.727Z,72.71
2022-09-26T01:29:48.903Z,73.51
2022-09-26T01:32:51.765Z,73.64
2022-09-26T01:35:27.274Z,72.87
2022-09-26T01:38:00.048Z,72.34
2022-09-26T01:40:36.207Z,72.58
2022-09-26T01:43:19.339Z,72.57
2022-09-26T01:45:57.868Z,72.69
2022-09-26T01:48:42.578Z,72.92
2022-09-26T01:51:18.244Z,72.99
2022-09-26T01:53:52.060Z,72.45
2022-09-26T01:56:26.860Z,72.57
2022-09-26T01:59:02.497Z,71.91
2022-09-26T02:01:35.083Z,71.84
2022-09-26T02:04:16.043Z,72.17
2022-09-26T02:06:51.819Z,72.39
2022-09-26T02:09:27.632Z,71.73
2022-09-26T02:12:01.064Z,71.53
2022-09-26T02:14:34.170Z,71.03
2022-09-26T02:17:15.927Z,71.07
2022-09-26T02:20:03.523Z,70.97
2022-09-26T02:22:35.686Z,70.78
2022-09-26T02:25:08.451Z,71.21
2022-09-26T02:27:40.061Z,70.76
2022-09-26T02:30:12.106Z,70.63
2022-09-26T02:32:41.867Z,71.01
2022-09-26T02:35:29.620Z,71.22
2022-09-26T02:37:59.535Z,70.34
2022-09-26T02:40:36.702Z,71.03
2022-09-26T02:43:42.467Z,70.70
2022-09-26T02:46:31.570Z,70.20
2022-09-26T02:49:24.053Z,70.27
2022-09-26T02:51:59.719Z,70.11
2022-09-26T02:54:47.255Z,70.03
2022-09-26T02:57:21.664Z,69.50
2022-09-26T02:59:57.663Z,69.68
2022-09-26T03:02:45.522Z,69.38
2022-09-26T03:05:24.810Z,69.03
2022-09-26T03:08:00.813Z,69.54
2022-09-26T03:10:32.758Z,69.54
2022-09-26T03:13:11.251Z,68.60
2022-09-26T03:15:45.181Z,69.85
2022-09-26T03:18:24.147Z,69.83
2022-09-26T03:20:54.157Z,70.83
2022-09-26T03:23:26.194Z,70.83
2022-09-26T03:26:02.390Z,71.15
2022-09-26T03:28:37.639Z,71.15
2022-09-26T03:31:05.066Z,71.23
2022-09-26T03:33:36.511Z,71.06
2022-09-26T03:36:09.447Z,71.06
2022-09-26T03:38:39.495Z,71.92
2022-09-26T03:41:11.392Z,71.43
2022-09-26T03:43:54.595Z,71.79
2022-09-26T03:46:25.397Z,71.79
2022-09-26T03:48:55.133Z,71.75
2022-09-26T03:51:24.897Z,72.16
2022-09-26T03:53:54.712Z,72.43
2022-09-26T03:56:26.941Z,72.34
2022-09-26T03:58:56.674Z,72.10
2022-09-26T04:01:27.199Z,72.71
2022-09-26T04:04:01.052Z,72.30
2022-09-26T04:06:30.798Z,72.69
2022-09-26T04:09:01.665Z,72.25
2022-09-26T04:11:31.464Z,72.38
2022-09-26T04:14:01.804Z,72.78
2022-09-26T04:16:33.305Z,72.35
2022-09-26T04:19:07.548Z,72.97
2022-09-26T04:21:38.888Z,72.98
2022-09-26T04:24:16.199Z,72.72
2022-09-26T04:26:45.989Z,72.38
2022-09-26T04:29:16.074Z,72.34
2022-09-26T04:31:53.279Z,72.31
2022-09-26T04:34:27.538Z,72.23
2022-09-26T04:36:58.459Z,71.73
2022-09-26T04:39:28.552Z,72.12
2022-09-26T04:41:58.451Z,72.13
2022-09-26T04:44:27.910Z,71.65
2022-09-26T04:46:57.706Z,71.83
2022-09-26T04:49:29.712Z,71.84
2022-09-26T04:51:59.424Z,71.84
2022-09-26T04:54:29.163Z,71.65
2022-09-26T04:57:01.127Z,71.40
2022-09-26T04:59:30.858Z,71.34
2022-09-26T05:02:03.572Z,71.07
2022-09-26T05:04:35.906Z,71.89
2022-09-26T05:07:05.972Z,71.89
2022-09-26T05:09:36.445Z,72.01
2022-09-26T05:12:09.657Z,72.18
2022-09-26T05:14:40.794Z,71.96
2022-09-26T05:17:11.600Z,72.70
2022-09-26T05:19:42.972Z,73.63
2022-09-26T05:22:14.439Z,73.98
2022-09-26T05:25:02.273Z,74.74
2022-09-26T05:27:32.069Z,74.77
2022-09-26T05:30:01.874Z,75.02
2022-09-26T05:32:31.686Z,74.99
2022-09-26T05:35:03.409Z,75.56
2022-09-26T05:37:33.776Z,74.63
2022-09-26T05:40:23.557Z,74.58
2022-09-26T05:42:55.392Z,74.58
2022-09-26T05:45:25.146Z,74.68
2022-09-26T05:47:55.051Z,75.04
2022-09-26T05:50:25.147Z,75.52
2022-09-26T05:53:00.787Z,75.14
2022-09-26T05:55:31.334Z,75.51
2022-09-26T05:58:18.913Z,75.39
2022-09-26T06:00:57.963Z,75.25
2022-09-26T06:03:29.429Z,75.31
2022-09-26T06:06:03.868Z,75.18
2022-09-26T06:08:36.541Z,75.20
2022-09-26T06:11:25.936Z,75.08
2022-09-26T06:13:55.910Z,75.80
2022-09-26T06:16:26.075Z,75.73
2022-09-26T06:18:58.578Z,75.33
2022-09-26T06:21:28.330Z,74.99
2022-09-26T06:23:59.793Z,75.60
2022-09-26T06:26:31.713Z,75.35
2022-09-26T06:29:01.603Z,75.38
2022-09-26T06:31:33.147Z,75.78
2022-09-26T06:34:16.352Z,75.71
2022-09-26T06:36:47.827Z,75.42
2022-09-26T06:39:17.836Z,75.30
2022-09-26T06:41:49.330Z,75.47
2022-09-26T06:44:36.951Z,75.11
2022-09-26T06:47:24.195Z,74.71
2022-09-26T06:49:55.625Z,74.17
2022-09-26T06:52:27.279Z,74.74
2022-09-26T06:54:57.513Z,73.66
2022-09-26T06:57:27.721Z,73.50
2022-09-26T06:59:57.617Z,74.76
2022-09-26T07:02:29.160Z,73.96
2022-09-26T07:05:08.689Z,74.28
2022-09-26T07:07:45.087Z,74.12
2022-09-26T07:10:20.347Z,74.08
2022-09-26T07:13:07.850Z,74.51
2022-09-26T07:15:38.088Z,74.33
2022-09-26T07:18:28.175Z,74.45
2022-09-26T07:21:09.206Z,74.90
2022-09-26T07:23:46.100Z,74.59
2022-09-26T07:26:16.274Z,74.15
2022-09-26T07:28:49.612Z,74.55
2022-09-26T07:31:17.621Z,73.91
2022-09-26T07:33:52.759Z,73.53
2022-09-26T07:36:22.435Z,73.53
2022-09-26T07:38:53.971Z,73.77
2022-09-26T07:41:23.975Z,73.52
2022-09-26T07:44:46.167Z,73.54
2022-09-26T07:46:43.176Z,73.46
2022-09-26T07:49:31.049Z,73.46
2022-09-26T07:52:20.561Z,73.10
2022-09-26T07:54:52.021Z,72.83
2022-09-26T07:57:41.609Z,72.49
2022-09-26T08:00:21.316Z,72.81
2022-09-26T08:03:05.121Z,72.77
2022-09-26T08:05:37.180Z,72.99
2022-09-26T08:08:08.013Z,72.77
2022-09-26T08:11:01.565Z,73.26
2022-09-26T08:13:36.551Z,73.26
2022-09-26T08:16:09.965Z,72.64
2022-09-26T08:18:41.502Z,73.08
2022-09-26T08:21:11.425Z,72.73
2022-09-26T08:23:41.571Z,72.71
2022-09-26T08:26:24.614Z,72.44
2022-09-26T08:28:56.071Z,72.43
2022-09-26T08:31:26.821Z,72.82
2022-09-26T08:33:58.102Z,72.36
2022-09-26T08:36:27.890Z,72.13
2022-09-26T08:39:14.092Z,72.60
2022-09-26T08:42:07.224Z,72.43
2022-09-26T08:44:57.691Z,71.87
2022-09-26T08:47:36.329Z,71.60
2022-09-26T08:50:37.552Z,71.92
2022-09-26T08:53:19.114Z,71.81
2022-09-26T08:55:53.569Z,72.11
2022-09-26T08:58:33.031Z,72.92
2022-09-26T09:01:05.497Z,72.64
2022-09-26T09:03:48.630Z,72.75
2022-09-26T09:06:19.437Z,72.03
2022-09-26T09:08:52.083Z,72.22
2022-09-26T09:11:47.015Z,71.81
2022-09-26T09:14:25.005Z,71.81
2022-09-26T09:17:05.125Z,72.49
2022-09-26T09:19:46.838Z,73.18
2022-09-26T09:22:29.603Z,74.63
2022-09-26T09:25:25.678Z,74.38
2022-09-26T09:28:08.361Z,74.33
2022-09-26T09:30:40.058Z,74.80
2022-09-26T09:33:28.785Z,76.14
2022-09-26T09:38:50.362Z,78.09
2022-09-26T09:41:28.253Z,78.36
2022-09-26T09:44:03.884Z,78.46
2022-09-26T09:46:37.208Z,78.81
2022-09-26T09:49:12.352Z,78.56
2022-09-26T09:51:59.389Z,78.92
2022-09-26T09:54:51.731Z,78.62
2022-09-26T09:57:36.534Z,79.07
2022-09-26T10:00:17.484Z,78.42
2022-09-26T10:02:59.213Z,79.83
2022-09-26T10:05:47.020Z,79.83
2022-09-26T10:08:36.567Z,80.13
2022-09-26T10:11:26.041Z,80.67
2022-09-26T10:14:09.277Z,81.18
2022-09-26T10:17:11.931Z,80.75
2022-09-26T10:19:55.191Z,82.01
2022-09-26T10:22:41.319Z,81.13
2022-09-26T10:25:21.339Z,80.82
2022-09-26T10:27:55.038Z,80.61
2022-09-26T10:30:28.369Z,81.06
2022-09-26T10:33:01.725Z,81.06
2022-09-26T10:35:44.223Z,81.91
2022-09-26T10:38:29.073Z,81.78
2022-09-26T10:41:03.552Z,82.33
2022-09-26T10:43:37.878Z,83.17
2022-09-26T10:46:20.677Z,82.72
2022-09-26T10:49:07.232Z,82.80
2022-09-26T10:52:11.694Z,82.89
2022-09-26T10:54:44.393Z,82.91
2022-09-26T10:57:23.145Z,82.88
2022-09-26T10:59:54.937Z,82.93
2022-09-26T11:02:27.404Z,83.59
2022-09-26T11:05:18.116Z,83.49
2022-09-26T11:08:10.111Z,84.69
2022-09-26T11:10:42.009Z,83.72
2022-09-26T11:13:24.874Z,84.51
2022-09-26T11:16:02.644Z,84.27
2022-09-26T11:18:41.821Z,84.66
2022-09-26T11:21:29.310Z,84.90
2022-09-26T11:24:02.098Z,85.13
2022-09-26T11:26:57.130Z,85.13
2022-09-26T11:30:00.406Z,86.16
2022-09-26T11:32:40.025Z,85.92
2022-09-26T11:35:30.190Z,86.36
2022-09-26T11:38:05.868Z,85.71
2022-09-26T11:40:53.498Z,86.84
2022-09-26T11:43:29.278Z,86.03
2022-09-26T11:46:23.105Z,86.33
2022-09-26T11:49:08.191Z,86.17
2022-09-26T11:51:52.321Z,86.27
2022-09-26T11:54:48.523Z,86.57
2022-09-26T11:57:42.367Z,86.60
2022-09-26T12:00:27.390Z,85.87
2022-09-26T12:03:09.573Z,85.48
2022-09-26T12:05:52.148Z,86.08
2022-09-26T12:08:29.271Z,84.98
2022-09-26T12:11:19.698Z,85.96
2022-09-26T12:14:01.268Z,86.17
2022-09-26T12:16:36.781Z,85.81
2022-09-26T12:19:26.082Z,85.81
2022-09-26T12:22:19.386Z,85.61
2022-09-26T12:25:20.294Z,85.75
2022-09-26T12:28:20.114Z,86.86
2022-09-26T12:31:01.944Z,86.86
2022-09-26T12:33:40.507Z,86.18
2022-09-26T12:36:37.439Z,86.34
2022-09-26T12:39:26.216Z,86.67
2022-09-26T12:42:13.695Z,87.37
2022-09-26T12:44:49.024Z,87.74
2022-09-26T12:47:33.423Z,86.96
2022-09-26T12:50:14.666Z,88.03
2022-09-26T12:53:17.208Z,88.43
2022-09-26T12:56:09.277Z,88.48
2022-09-26T12:58:44.594Z,87.89
2022-09-26T13:01:17.433Z,87.89
2022-09-26T13:04:08.069Z,87.14
2022-09-26T13:07:17.679Z,87.60
2022-09-26T13:09:33.236Z,87.77
2022-09-26T13:12:16.668Z,87.39
2022-09-26T13:15:10.084Z,87.05
2022-09-26T13:17:44.756Z,87.07
2022-09-26T13:20:19.054Z,86.75
2022-09-26T13:22:58.195Z,88.06
2022-09-26T13:25:49.722Z,88.01
2022-09-26T13:28:21.378Z,87.71
2022-09-26T13:30:54.159Z,86.34
2022-09-26T13:33:35.717Z,85.82
2022-09-26T13:36:09.687Z,87.43
2022-09-26T13:38:58.734Z,86.98
2022-09-26T13:41:40.462Z,86.72
2022-09-26T13:44:28.101Z,87.60
2022-09-26T13:47:15.465Z,87.70
2022-09-26T13:50:24.132Z,86.52
2022-09-26T13:53:04.055Z,87.76
2022-09-26T13:55:35.797Z,86.78
2022-09-26T13:58:22.119Z,86.78
2022-09-26T14:00:54.673Z,87.59
2022-09-26T14:03:28.200Z,87.48
2022-09-26T14:06:06.598Z,87.41
2022-09-26T14:08:54.932Z,87.42
2022-09-26T14:11:49.744Z,86.65
2022-09-26T14:14:22.249Z,86.62
2022-09-26T14:16:54.827Z,86.66
2022-09-26T14:19:39.374Z,87.25
2022-09-26T14:22:26.405Z,86.78
2022-09-26T14:24:57.455Z,87.36
2022-09-26T14:27:40.750Z,88.15
2022-09-26T14:30:30.261Z,89.26
2022-09-26T14:33:03.368Z,88.99
2022-09-26T14:35:38.627Z,88.98
2022-09-26T14:38:15.283Z,88.19
2022-09-26T14:41:00.790Z,88.46
2022-09-26T14:43:31.909Z,86.57
2022-09-26T14:46:05.163Z,87.50
2022-09-26T14:48:40.120Z,87.50
2022-09-26T14:51:16.086Z,87.02
2022-09-26T14:53:51.827Z,86.58
2022-09-26T14:56:29.924Z,86.92
2022-09-26T14:59:18.965Z,86.34
2022-09-26T15:01:48.603Z,87.20
2022-09-26T15:04:24.504Z,86.51
2022-09-26T15:07:05.980Z,86.51
2022-09-26T15:09:44.716Z,86.14
2022-09-26T15:12:20.012Z,86.16
2022-09-26T15:15:03.965Z,86.86
2022-09-26T15:17:32.734Z,86.40
2022-09-26T15:20:05.850Z,86.33
2022-09-26T15:22:35.973Z,85.59
2022-09-26T15:25:12.270Z,85.55
2022-09-26T15:27:46.215Z,85.60
2022-09-26T15:30:22.499Z,85.55
2022-09-26T15:32:57.656Z,86.23
2022-09-26T15:35:28.091Z,85.58
2022-09-26T15:38:03.662Z,84.84
2022-09-26T15:40:33.556Z,84.88
2022-09-26T15:43:15.885Z,84.59
2022-09-26T15:45:53.207Z,85.09
2022-09-26T15:48:25.835Z,85.17
2022-09-26T15:50:59.221Z,85.25
2022-09-26T15:53:41.077Z,84.82
2022-09-26T15:56:16.955Z,85.22
2022-09-26T15:58:52.390Z,85.53
2022-09-26T16:01:25.533Z,85.48
2022-09-26T16:04:22.403Z,85.46
2022-09-26T16:07:07.036Z,86.63
2022-09-26T16:09:43.224Z,87.11
2022-09-26T16:12:22.362Z,86.44
2022-09-26T16:14:55.153Z,86.20
2022-09-26T16:17:32.346Z,87.07
2022-09-26T16:20:07.580Z,85.63
2022-09-26T16:22:46.046Z,85.63
2022-09-26T16:25:22.819Z,85.98
2022-09-26T16:28:03.212Z,85.31
2022-09-26T16:30:36.033Z,85.50
2022-09-26T16:33:11.762Z,85.66
2022-09-26T16:35:48.837Z,86.02
2022-09-26T16:38:37.594Z,85.69
2022-09-26T16:41:10.504Z,86.16
2022-09-26T16:43:41.291Z,86.16
2022-09-26T16:46:18.231Z,86.70
2022-09-26T16:48:55.532Z,86.35
2022-09-26T16:51:28.207Z,85.59
2022-09-26T16:54:14.414Z,85.31
2022-09-26T16:56:45.389Z,85.31
2022-09-26T16:59:23.589Z,86.48
2022-09-26T17:01:58.773Z,85.79
2022-09-26T17:04:34.399Z,85.85
2022-09-26T17:07:09.690Z,85.02
2022-09-26T17:09:40.531Z,85.38
2022-09-26T17:12:20.325Z,85.16
2022-09-26T17:14:52.358Z,85.19
2022-09-26T17:17:25.609Z,84.38
2022-09-26T17:19:59.330Z,85.10
2022-09-26T17:22:27.539Z,84.85
2022-09-26T17:24:57.406Z,83.81
2022-09-26T17:27:30.490Z,83.97
2022-09-26T17:30:02.373Z,84.12
2022-09-26T17:32:40.289Z,84.55
2022-09-26T17:35:18.375Z,83.33
2022-09-26T17:37:48.175Z,83.28
2022-09-26T17:40:21.914Z,83.44
2022-09-26T17:42:55.558Z,83.49
2022-09-26T17:45:40.687Z,82.87
2022-09-26T17:48:31.317Z,82.68
2022-09-26T17:51:04.247Z,83.13
2022-09-26T17:53:39.210Z,82.78
2022-09-26T17:56:12.643Z,82.49
2022-09-26T17:58:45.388Z,82.33
2022-09-26T18:01:27.351Z,81.78
2022-09-26T18:04:00.798Z,83.33
2022-09-26T18:06:32.932Z,83.01
2022-09-26T18:09:08.703Z,83.14
2022-09-26T18:11:38.898Z,83.78
2022-09-26T18:14:14.910Z,83.63
2022-09-26T18:16:46.398Z,83.70
2022-09-26T18:19:16.614Z,82.97
2022-09-26T18:21:46.634Z,82.97
2022-09-26T18:24:19.981Z,83.62
2022-09-26T18:26:51.446Z,83.54
2022-09-26T18:29:33.056Z,84.48
2022-09-26T18:32:04.883Z,84.68
2022-09-26T18:34:34.914Z,83.92
2022-09-26T18:37:05.194Z,83.84
2022-09-26T18:39:35.672Z,84.78
2022-09-26T18:42:11.860Z,84.81
2022-09-26T18:44:42.428Z,85.13
2022-09-26T18:47:17.253Z,84.65
2022-09-26T18:49:47.801Z,84.32
2022-09-26T18:52:19.294Z,84.65
2022-09-26T18:54:50.662Z,84.88
2022-09-26T18:57:38.732Z,85.12
2022-09-26T19:00:10.490Z,84.22
2022-09-26T19:02:40.567Z,84.07
2022-09-26T19:05:13.086Z,83.84
2022-09-26T19:07:44.765Z,84.68
2022-09-26T19:10:17.405Z,84.89
2022-09-26T19:12:48.200Z,84.24
2022-09-26T19:15:18.305Z,84.46
2022-09-26T19:17:49.896Z,84.42
2022-09-26T19:20:19.870Z,84.63
2022-09-26T19:22:50.470Z,83.83
2022-09-26T19:25:20.623Z,83.44
2022-09-26T19:27:54.900Z,83.50
2022-09-26T19:30:24.742Z,82.89
2022-09-26T19:32:57.024Z,83.53
2022-09-26T19:35:39.121Z,84.35
2022-09-26T19:38:22.271Z,84.87
2022-09-26T19:40:53.623Z,83.87
2022-09-26T19:43:24.094Z,83.75
2022-09-26T19:45:55.219Z,83.27
2022-09-26T19:48:25.430Z,84.13
2022-09-26T19:50:55.836Z,84.03
2022-09-26T19:53:25.571Z,84.84
2022-09-26T19:55:55.777Z,84.16
2022-09-26T19:58:29.269Z,84.73
2022-09-26T20:01:03.687Z,84.33
2022-09-26T20:03:42.656Z,84.28
2022-09-26T20:06:26.101Z,84.25
2022-09-26T20:09:01.475Z,84.50
2022-09-26T20:11:29.197Z,85.18
2022-09-26T20:14:16.892Z,84.58
2022-09-26T20:16:46.738Z,85.46
2022-09-26T20:19:19.419Z,85.59
2022-09-26T20:21:49.627Z,86.19
2022-09-26T20:24:19.698Z,85.09
2022-09-26T20:26:49.579Z,85.53
2022-09-26T20:29:19.621Z,85.74
2022-09-26T20:31:49.436Z,85.12
2022-09-26T20:34:19.331Z,85.98
2022-09-26T20:36:51.373Z,85.68
2022-09-26T20:39:26.876Z,85.35
2022-09-26T20:41:57.157Z,85.97
2022-09-26T20:44:29.921Z,85.35
2022-09-26T20:47:01.692Z,85.71
2022-09-26T20:49:34.172Z,86.06
2022-09-26T20:52:06.027Z,85.75
2022-09-26T20:54:36.205Z,85.78
2022-09-26T20:57:05.912Z,85.28
2022-09-26T20:59:36.310Z,85.61
2022-09-26T21:02:19.212Z,84.68
2022-09-26T21:04:49.111Z,84.22
2022-09-26T21:07:19.000Z,84.55
2022-09-26T21:09:49.745Z,84.55
2022-09-26T21:12:19.872Z,84.62
2022-09-26T21:14:49.604Z,84.59
2022-09-26T21:17:31.348Z,84.04
2022-09-26T21:20:01.212Z,83.55
2022-09-26T21:22:37.149Z,83.75
2022-09-26T21:25:09.959Z,83.54
2022-09-26T21:27:39.398Z,83.50
2022-09-26T21:30:16.451Z,83.01
2022-09-26T21:32:49.442Z,83.37
2022-09-26T21:35:20.820Z,82.43
2022-09-26T21:37:52.929Z,82.91
2022-09-26T21:40:26.108Z,82.88
2022-09-26T21:42:58.995Z,82.91
2022-09-26T21:45:28.755Z,82.91
2022-09-26T21:47:58.925Z,83.35
2022-09-26T21:50:30.138Z,83.09
2022-09-26T21:53:08.831Z,83.28
2022-09-26T21:55:41.540Z,83.16
2022-09-26T21:58:15.984Z,83.59
2022-09-26T22:00:45.712Z,83.45
2022-09-26T22:03:15.492Z,83.65
2022-09-26T22:05:45.521Z,83.35
2022-09-26T22:08:15.520Z,83.89
2022-09-26T22:10:45.244Z,82.48
2022-09-26T22:13:14.962Z,82.48
2022-09-26T22:15:44.699Z,83.72
2022-09-26T22:18:14.293Z,82.57
2022-09-26T22:20:44.304Z,83.42
2022-09-26T22:23:14.047Z,83.68
2022-09-26T22:25:47.082Z,83.07
2022-09-26T22:28:16.889Z,83.11
2022-09-26T22:30:46.703Z,83.25
2022-09-26T22:33:18.589Z,82.81
2022-09-26T22:35:50.340Z,84.51
2022-09-26T22:38:20.086Z,84.51
2022-09-26T22:40:59.992Z,83.86
2022-09-26T22:43:30.150Z,83.87
2022-09-26T22:46:05.651Z,83.31
2022-09-26T22:48:37.357Z,83.42
2022-09-26T22:51:08.031Z,84.37
2022-09-26T22:53:39.996Z,83.57
2022-09-26T22:56:13.791Z,83.52
2022-09-26T22:58:46.595Z,83.28
2022-09-26T23:01:23.688Z,83.83
2022-09-26T23:03:53.853Z,83.21
2022-09-26T23:06:24.356Z,84.54
2022-09-26T23:08:54.574Z,84.42
2022-09-26T23:11:24.847Z,84.02
2022-09-26T23:13:54.804Z,84.32
2022-09-26T23:16:27.206Z,84.55
2022-09-26T23:18:58.150Z,84.12
2022-09-26T23:21:29.007Z,83.87
2022-09-26T23:23:58.878Z,84.50
2022-09-26T23:26:31.609Z,85.10
2022-09-26T23:29:01.847Z,84.66
2022-09-26T23:31:31.585Z,85.16
2022-09-26T23:34:01.396Z,85.06
2022-09-26T23:36:31.206Z,85.06
2022-09-26T23:39:01.019Z,85.61
2022-09-26T23:41:31.044Z,85.31
2022-09-26T23:44:00.838Z,85.42
2022-09-26T23:46:30.949Z,85.94
2022-09-26T23:49:00.671Z,84.80
2022-09-26T23:51:30.412Z,84.10
2022-09-26T23:54:00.153Z,83.93
2022-09-26T23:56:29.603Z,84.02
2022-09-26T23:58:59.719Z,84.12
